createdAt,value
2023-01-10T00:00:57.387Z,97829.63
2023-01-10T00:03:25.499Z,97873.06
2023-01-10T00:05:52.071Z,97846.34
2023-01-10T00:08:19.085Z,97807.41
2023-01-10T00:10:48.005Z,97874.19
2023-01-10T00:13:25.993Z,97899.06
2023-01-10T00:15:55.132Z,97889.91
2023-01-10T00:18:22.354Z,97897.66
2023-01-10T00:20:49.763Z,97899.47
2023-01-10T00:23:17.316Z,97903.72
2023-01-10T00:25:44.631Z,97878.81
2023-01-10T00:28:20.283Z,97825.66
2023-01-10T00:31:01.463Z,97918.75
2023-01-10T00:33:30.097Z,97867.94
2023-01-10T00:35:58.365Z,97931.75
2023-01-10T00:38:24.933Z,97938.25
2023-01-10T00:40:51.839Z,97913.31
2023-01-10T00:43:38.304Z,97878.44
2023-01-10T00:46:06.308Z,97929.16
2023-01-10T00:48:32.824Z,97930.31
2023-01-10T00:50:59.933Z,97871.91
2023-01-10T00:53:27.728Z,97916.19
2023-01-10T00:55:55.646Z,97997.94
2023-01-10T00:58:23.376Z,98006.84
2023-01-10T01:00:50.458Z,97938.88
2023-01-10T01:03:19.912Z,98025.56
2023-01-10T01:05:48.614Z,97950.84
2023-01-10T01:08:16.608Z,97998.06
2023-01-10T01:10:43.523Z,98036.22
2023-01-10T01:13:21.844Z,98054.81
2023-01-10T01:15:49.567Z,98038.75
2023-01-10T01:18:20.740Z,98084.63
2023-01-10T01:20:51.271Z,98083.63
2023-01-10T01:23:17.758Z,98043.97
2023-01-10T01:25:44.357Z,98047.56
2023-01-10T01:28:13.876Z,98009.53
2023-01-10T01:30:40.749Z,98093.56
2023-01-10T01:33:08.334Z,98121.97
2023-01-10T01:35:36.524Z,98119.88
2023-01-10T01:38:06.134Z,98031.31
2023-01-10T01:40:33.116Z,98143.53
2023-01-10T01:42:59.729Z,98138.34
2023-01-10T01:45:29.647Z,98153.25
2023-01-10T01:48:21.268Z,98158.91
2023-01-10T01:51:05.817Z,98143.38
2023-01-10T01:53:55.062Z,98134.59
2023-01-10T01:56:33.529Z,98141.78
2023-01-10T01:59:08.043Z,98163.31
2023-01-10T02:01:38.333Z,98155.88
2023-01-10T02:04:14.648Z,98135.75
2023-01-10T02:06:41.995Z,98127.75
2023-01-10T02:09:26.790Z,98173.44
2023-01-10T02:11:56.755Z,98178.81
2023-01-10T02:14:26.264Z,98174.44
2023-01-10T02:16:52.983Z,98187.19
2023-01-10T02:19:39.878Z,98186.22
2023-01-10T02:22:43.789Z,98175.44
2023-01-10T02:26:11.055Z,98168.41
2023-01-10T02:28:53.041Z,98185.69
2023-01-10T02:31:39.313Z,98171.03
2023-01-10T02:34:18.624Z,98184.66
2023-01-10T02:37:18.821Z,98173.41
2023-01-10T02:40:11.753Z,98185.69
2023-01-10T02:42:55.652Z,98175.13
2023-01-10T02:45:31.324Z,98084.06
2023-01-10T02:47:58.489Z,98118.88
2023-01-10T02:50:35.525Z,98173.81
2023-01-10T02:53:11.010Z,98168.97
2023-01-10T02:55:55.839Z,98156.88
2023-01-10T02:58:45.126Z,98188.34
2023-01-10T03:01:43.098Z,98200.53
2023-01-10T03:04:20.709Z,98178.28
2023-01-10T03:06:56.922Z,98196.28
2023-01-10T03:09:43.842Z,98224.56
2023-01-10T03:12:39.487Z,98236.59
2023-01-10T03:15:08.142Z,98247.53
2023-01-10T03:17:37.950Z,98204.03
2023-01-10T03:20:06.910Z,98257.81
2023-01-10T03:22:37.576Z,98249.34
2023-01-10T03:25:07.578Z,98210.69
2023-01-10T03:27:46.798Z,98220.03
2023-01-10T03:30:24.657Z,98237.69
2023-01-10T03:32:51.706Z,98217.50
2023-01-10T03:35:22.091Z,98266.97
2023-01-10T03:38:06.884Z,98245.78
2023-01-10T03:40:49.349Z,98278.56
2023-01-10T03:43:46.163Z,98281.47
2023-01-10T03:46:25.969Z,98281.75
2023-01-10T03:48:54.163Z,98302.88
2023-01-10T03:51:21.264Z,98270.44
2023-01-10T03:53:48.569Z,98252.34
2023-01-10T03:56:16.378Z,98294.75
2023-01-10T03:58:44.056Z,98259.44
2023-01-10T04:01:10.923Z,98298.94
2023-01-10T04:03:39.908Z,98339.47
2023-01-10T04:06:07.170Z,98303.56
2023-01-10T04:08:33.828Z,98353.94
2023-01-10T04:11:00.383Z,98352.56
2023-01-10T04:13:29.105Z,98335.44
2023-01-10T04:15:55.797Z,98309.31
2023-01-10T04:18:22.577Z,98334.44
2023-01-10T04:20:52.062Z,98302.81
2023-01-10T04:23:20.819Z,98355.19
2023-01-10T04:25:48.078Z,98349.47
2023-01-10T04:28:15.911Z,98347.72
2023-01-10T04:30:42.568Z,98394.78
2023-01-10T04:33:10.530Z,98200.84
2023-01-10T04:35:37.363Z,98334.50
2023-01-10T04:38:03.954Z,98328.56
2023-01-10T04:40:30.839Z,98406.66
2023-01-10T04:42:57.611Z,98333.44
2023-01-10T04:45:24.511Z,98367.28
2023-01-10T04:47:52.709Z,98414.38
2023-01-10T04:50:19.283Z,98305.34
2023-01-10T04:52:47.262Z,98417.16
2023-01-10T04:55:14.112Z,98397.16
2023-01-10T04:57:40.748Z,98427.44
2023-01-10T05:00:08.523Z,98391.69
2023-01-10T05:02:35.375Z,98401.44
2023-01-10T05:05:02.446Z,98434.97
2023-01-10T05:07:28.947Z,98405.19
2023-01-10T05:09:58.390Z,98433.00
2023-01-10T05:12:24.970Z,98415.56
2023-01-10T05:14:51.463Z,98437.72
2023-01-10T05:17:19.093Z,98443.84
2023-01-10T05:19:45.648Z,98411.03
2023-01-10T05:22:12.383Z,98414.66
2023-01-10T05:24:38.876Z,98424.03
2023-01-10T05:27:05.626Z,98352.50
2023-01-10T05:29:33.174Z,98445.81
2023-01-10T05:32:00.154Z,98452.38
2023-01-10T05:34:27.778Z,98452.75
2023-01-10T05:36:55.596Z,98429.41
2023-01-10T05:39:22.207Z,98442.53
2023-01-10T05:41:48.724Z,98448.28
2023-01-10T05:44:17.442Z,98450.53
2023-01-10T05:46:44.393Z,98445.16
2023-01-10T05:49:10.982Z,98451.25
2023-01-10T05:51:37.644Z,98470.13
2023-01-10T05:54:04.186Z,98474.56
2023-01-10T05:56:30.754Z,98435.41
2023-01-10T05:59:07.718Z,98463.09
2023-01-10T06:01:38.335Z,98480.13
2023-01-10T06:04:04.866Z,98473.31
2023-01-10T06:06:31.371Z,98472.38
2023-01-10T06:08:59.215Z,98476.13
2023-01-10T06:11:29.954Z,98459.81
2023-01-10T06:13:58.456Z,98458.84
2023-01-10T06:16:25.530Z,98453.91
2023-01-10T06:18:55.510Z,98477.88
2023-01-10T06:21:22.544Z,98478.69
2023-01-10T06:23:50.325Z,98478.56
2023-01-10T06:26:19.032Z,98467.28
2023-01-10T06:28:45.686Z,98500.84
2023-01-10T06:31:14.255Z,98509.06
2023-01-10T06:33:41.764Z,98495.88
2023-01-10T06:36:08.966Z,98486.16
2023-01-10T06:38:35.650Z,98502.63
2023-01-10T06:41:12.918Z,98507.13
2023-01-10T06:43:41.651Z,98502.72
2023-01-10T06:46:10.007Z,98521.53
2023-01-10T06:48:37.937Z,98495.16
2023-01-10T06:51:05.643Z,98532.97
2023-01-10T06:53:32.641Z,98550.28
2023-01-10T06:55:59.271Z,98544.88
2023-01-10T06:58:28.122Z,98564.44
2023-01-10T07:00:55.347Z,98557.63
2023-01-10T07:03:21.956Z,98576.47
2023-01-10T07:05:48.705Z,98564.06
2023-01-10T07:08:16.585Z,98527.34
2023-01-10T07:10:46.117Z,98574.81
2023-01-10T07:13:12.632Z,98551.44
2023-01-10T07:15:39.274Z,98507.47
2023-01-10T07:18:05.922Z,98588.13
2023-01-10T07:20:32.392Z,98578.81
2023-01-10T07:23:00.529Z,98589.97
2023-01-10T07:25:30.222Z,98591.72
2023-01-10T07:27:59.088Z,98558.38
2023-01-10T07:30:26.717Z,98570.22
2023-01-10T07:32:57.170Z,98558.38
2023-01-10T07:35:24.745Z,98580.72
2023-01-10T07:37:51.812Z,98579.03
2023-01-10T07:40:18.349Z,98613.06
2023-01-10T07:42:45.026Z,98575.13
2023-01-10T07:45:11.957Z,98587.25
2023-01-10T07:47:39.198Z,98577.41
2023-01-10T07:50:06.494Z,98592.81
2023-01-10T07:52:33.823Z,98619.31
2023-01-10T07:55:00.502Z,98565.25
2023-01-10T07:57:27.434Z,98591.25
2023-01-10T07:59:53.916Z,98524.00
2023-01-10T08:02:20.577Z,98634.78
2023-01-10T08:04:47.293Z,98638.91
2023-01-10T08:07:14.953Z,98640.56
2023-01-10T08:09:42.682Z,98635.75
2023-01-10T08:12:09.517Z,98638.56
2023-01-10T08:14:36.120Z,98622.13
2023-01-10T08:17:02.791Z,98632.00
2023-01-10T08:19:29.349Z,98657.34
2023-01-10T08:21:56.259Z,98633.84
2023-01-10T08:24:23.128Z,98652.06
2023-01-10T08:26:49.783Z,98532.31
2023-01-10T08:29:17.445Z,98570.59
2023-01-10T08:31:44.627Z,98557.47
2023-01-10T08:34:13.752Z,98628.69
2023-01-10T08:36:40.379Z,98641.63
2023-01-10T08:39:07.707Z,98647.69
2023-01-10T08:41:34.920Z,98635.84
2023-01-10T08:44:01.667Z,98675.69
2023-01-10T08:46:28.388Z,98676.13
2023-01-10T08:48:56.069Z,98685.72
2023-01-10T08:51:22.965Z,98654.75
2023-01-10T08:53:49.502Z,98674.97
2023-01-10T08:56:16.183Z,98623.41
2023-01-10T08:58:44.848Z,98690.19
2023-01-10T09:01:12.834Z,98637.56
2023-01-10T09:03:39.962Z,98664.53
2023-01-10T09:06:07.483Z,98652.84
2023-01-10T09:08:35.337Z,98592.97
2023-01-10T09:11:02.323Z,98689.28
2023-01-10T09:13:30.333Z,98684.81
2023-01-10T09:15:57.826Z,98663.06
2023-01-10T09:18:25.879Z,98716.50
2023-01-10T09:20:53.607Z,98714.19
2023-01-10T09:23:22.223Z,98672.34
2023-01-10T09:25:51.804Z,98621.47
2023-01-10T09:28:18.993Z,98730.56
2023-01-10T09:30:47.606Z,98703.84
2023-01-10T09:33:14.471Z,98703.13
2023-01-10T09:35:42.597Z,98654.78
2023-01-10T09:38:17.717Z,98736.13
2023-01-10T09:41:04.008Z,98737.50
2023-01-10T09:43:50.339Z,98751.34
2023-01-10T09:46:31.018Z,98744.25
2023-01-10T09:49:30.823Z,98743.09
2023-01-10T09:51:59.310Z,98737.97
2023-01-10T09:54:30.126Z,98749.94
2023-01-10T09:56:59.627Z,98754.94
2023-01-10T09:59:35.675Z,98688.22
2023-01-10T10:02:22.501Z,98757.88
2023-01-10T10:05:13.180Z,98703.78
2023-01-10T10:07:40.697Z,98685.63
2023-01-10T10:10:12.045Z,98751.84
2023-01-10T10:12:50.908Z,98772.75
2023-01-10T10:15:43.225Z,98772.13
2023-01-10T10:18:36.851Z,98745.44
2023-01-10T10:21:15.364Z,98772.94
2023-01-10T10:24:10.106Z,98772.34
2023-01-10T10:27:00.041Z,98778.44
2023-01-10T10:29:46.888Z,98768.25
2023-01-10T10:32:25.894Z,98769.00
2023-01-10T10:35:03.667Z,98761.50
2023-01-10T10:37:43.125Z,98754.94
2023-01-10T10:40:17.735Z,98757.81
2023-01-10T10:43:08.646Z,98728.50
2023-01-10T10:45:46.296Z,98732.03
2023-01-10T10:48:18.383Z,98751.25
2023-01-10T10:51:08.978Z,98745.91
2023-01-10T10:53:36.722Z,98743.53
2023-01-10T10:56:05.599Z,98712.63
2023-01-10T10:58:32.916Z,98647.31
2023-01-10T11:01:03.963Z,98704.91
2023-01-10T11:03:44.651Z,98664.59
2023-01-10T11:06:11.562Z,98702.38
2023-01-10T11:08:44.804Z,98697.25
2023-01-10T11:11:31.614Z,98731.50
2023-01-10T11:14:04.932Z,98731.78
2023-01-10T11:16:36.931Z,98696.06
2023-01-10T11:19:30.627Z,98729.59
2023-01-10T11:22:06.583Z,98679.84
2023-01-10T11:24:42.062Z,98703.66
2023-01-10T11:27:18.239Z,98729.41
2023-01-10T11:30:10.193Z,98736.00
2023-01-10T11:32:50.070Z,98737.09
2023-01-10T11:35:37.368Z,98732.81
2023-01-10T11:38:29.149Z,98694.06
2023-01-10T11:41:25.662Z,98713.47
2023-01-10T11:43:53.372Z,98613.59
2023-01-10T11:46:25.810Z,98679.66
2023-01-10T11:49:07.716Z,98698.81
2023-01-10T11:51:39.801Z,98661.78
2023-01-10T11:54:12.940Z,98714.34
2023-01-10T11:56:41.621Z,98630.00
2023-01-10T11:59:18.646Z,98723.00
2023-01-10T12:02:20.921Z,98711.88
2023-01-10T12:04:51.002Z,98681.09
2023-01-10T12:07:19.737Z,98690.41
2023-01-10T12:10:02.262Z,98700.53
2023-01-10T12:12:35.257Z,98711.66
2023-01-10T12:15:28.797Z,98709.22
2023-01-10T12:18:05.399Z,98701.44
2023-01-10T12:20:40.888Z,98690.41
2023-01-10T12:23:17.135Z,98672.16
2023-01-10T12:25:45.837Z,98673.44
2023-01-10T12:28:29.091Z,98688.22
2023-01-10T12:30:59.358Z,98682.56
2023-01-10T12:33:35.228Z,98688.19
2023-01-10T12:36:17.920Z,98674.34
2023-01-10T12:39:19.134Z,98671.06
2023-01-10T12:42:22.777Z,98687.13
2023-01-10T12:44:54.978Z,98672.53
2023-01-10T12:47:31.816Z,98672.59
2023-01-10T12:50:03.636Z,98656.09
2023-01-10T12:52:52.458Z,98686.22
2023-01-10T12:55:22.141Z,98672.44
2023-01-10T12:57:58.002Z,98671.88
2023-01-10T13:00:40.473Z,98673.28
2023-01-10T13:03:22.471Z,98674.91
2023-01-10T13:05:51.730Z,98675.66
2023-01-10T13:08:23.361Z,98661.59
2023-01-10T13:10:53.000Z,98674.47
2023-01-10T13:13:32.032Z,98671.41
2023-01-10T13:16:15.205Z,98666.41
2023-01-10T13:19:01.583Z,98661.94
2023-01-10T13:21:30.050Z,98661.50
2023-01-10T13:24:14.853Z,98663.75
2023-01-10T13:26:56.996Z,98655.28
2023-01-10T13:29:45.261Z,98652.91
2023-01-10T13:32:30.064Z,98630.91
2023-01-10T13:35:16.344Z,98655.75
2023-01-10T13:37:47.292Z,98651.16
2023-01-10T13:40:25.914Z,98665.34
2023-01-10T13:43:34.417Z,98660.94
2023-01-10T13:46:16.222Z,98656.28
2023-01-10T13:48:48.934Z,98651.19
2023-01-10T13:51:19.000Z,98611.59
2023-01-10T13:53:52.733Z,98649.53
2023-01-10T13:56:31.965Z,98624.34
2023-01-10T13:59:17.689Z,98637.50
2023-01-10T14:02:08.643Z,98633.19
2023-01-10T14:04:38.956Z,98618.16
2023-01-10T14:07:23.417Z,98634.38
2023-01-10T14:09:51.362Z,98571.72
2023-01-10T14:12:26.533Z,98612.13
2023-01-10T14:14:57.333Z,98588.78
2023-01-10T14:17:32.209Z,98629.84
2023-01-10T14:20:17.607Z,98622.06
2023-01-10T14:22:57.730Z,98619.41
2023-01-10T14:25:27.570Z,98620.53
2023-01-10T14:27:55.573Z,98581.41
2023-01-10T14:30:27.456Z,98622.19
2023-01-10T14:32:57.967Z,98469.16
2023-01-10T14:35:34.648Z,98483.56
2023-01-10T14:38:03.182Z,98480.72
2023-01-10T14:40:45.860Z,98567.00
2023-01-10T14:43:16.701Z,98545.91
2023-01-10T14:46:04.798Z,98596.91
2023-01-10T14:48:40.359Z,98600.19
2023-01-10T14:51:18.279Z,98568.63
2023-01-10T14:53:45.405Z,98521.56
2023-01-10T14:56:25.281Z,98484.00
2023-01-10T14:58:51.773Z,98576.91
2023-01-10T15:01:29.730Z,98541.13
2023-01-10T15:03:58.642Z,98570.63
2023-01-10T15:06:26.181Z,98569.94
2023-01-10T15:09:00.230Z,98596.88
2023-01-10T15:11:29.080Z,98594.91
2023-01-10T15:14:03.657Z,98461.84
2023-01-10T15:16:31.359Z,98583.50
2023-01-10T15:18:59.763Z,98528.41
2023-01-10T15:21:28.640Z,98565.13
2023-01-10T15:23:55.205Z,98569.53
2023-01-10T15:26:29.496Z,98534.94
2023-01-10T15:29:19.246Z,98565.22
2023-01-10T15:31:46.724Z,98575.44
2023-01-10T15:34:20.465Z,98470.59
2023-01-10T15:36:53.713Z,98555.81
2023-01-10T15:39:29.184Z,98460.72
2023-01-10T15:42:03.689Z,98534.84
2023-01-10T15:44:47.473Z,98553.91
2023-01-10T15:48:05.821Z,98538.84
2023-01-10T15:50:40.249Z,98468.56
2023-01-10T15:53:10.326Z,98531.38
2023-01-10T15:55:55.461Z,98534.03
2023-01-10T15:58:32.982Z,98514.34
2023-01-10T16:01:02.832Z,98529.03
2023-01-10T16:03:44.834Z,98524.84
2023-01-10T16:06:33.788Z,98525.63
2023-01-10T16:09:05.851Z,98514.78
2023-01-10T16:12:05.639Z,98509.69
2023-01-10T16:14:33.717Z,98515.91
2023-01-10T16:17:03.896Z,98425.13
2023-01-10T16:19:30.746Z,98510.44
2023-01-10T16:21:59.218Z,98496.97
2023-01-10T16:24:31.128Z,98470.25
2023-01-10T16:27:05.777Z,98505.50
2023-01-10T16:29:34.121Z,98451.25
2023-01-10T16:32:03.039Z,98495.09
2023-01-10T16:34:31.090Z,98435.22
2023-01-10T16:36:58.936Z,98483.88
2023-01-10T16:39:25.547Z,98459.13
2023-01-10T16:42:10.836Z,98467.66
2023-01-10T16:44:37.407Z,98467.19
2023-01-10T16:47:07.093Z,98480.25
2023-01-10T16:49:33.963Z,98494.66
2023-01-10T16:52:00.479Z,98457.09
2023-01-10T16:54:28.178Z,98434.31
2023-01-10T16:56:58.654Z,98475.53
2023-01-10T16:59:25.180Z,98430.41
2023-01-10T17:01:57.922Z,98474.72
2023-01-10T17:04:28.869Z,98470.81
2023-01-10T17:06:59.972Z,98487.19
2023-01-10T17:09:32.516Z,98491.75
2023-01-10T17:12:12.406Z,98409.72
2023-01-10T17:14:42.335Z,98498.03
2023-01-10T17:17:10.766Z,98482.38
2023-01-10T17:19:38.522Z,98456.66
2023-01-10T17:22:06.333Z,98447.66
2023-01-10T17:24:33.141Z,98472.34
2023-01-10T17:26:59.762Z,98465.81
2023-01-10T17:29:29.372Z,98454.84
2023-01-10T17:31:57.224Z,98374.97
2023-01-10T17:34:26.082Z,98347.44
2023-01-10T17:36:53.895Z,98386.88
2023-01-10T17:39:21.667Z,98418.41
2023-01-10T17:41:48.565Z,98413.97
2023-01-10T17:44:15.062Z,98384.00
2023-01-10T17:46:44.121Z,98430.34
2023-01-10T17:49:18.337Z,98436.19
2023-01-10T17:51:45.532Z,98438.34
2023-01-10T17:54:16.920Z,98427.72
2023-01-10T17:56:43.935Z,98255.88
2023-01-10T17:59:13.102Z,98410.97
2023-01-10T18:01:39.907Z,98419.44
2023-01-10T18:04:08.403Z,98338.63
2023-01-10T18:06:35.393Z,98365.03
2023-01-10T18:09:05.294Z,98321.97
2023-01-10T18:11:33.634Z,98333.53
2023-01-10T18:14:21.652Z,98309.47
2023-01-10T18:16:49.488Z,98329.25
2023-01-10T18:19:19.118Z,98377.34
2023-01-10T18:21:47.874Z,98344.81
2023-01-10T18:24:16.716Z,98327.34
2023-01-10T18:26:43.256Z,98369.97
2023-01-10T18:29:14.784Z,98332.59
2023-01-10T18:31:42.927Z,98403.19
2023-01-10T18:34:09.749Z,98396.38
2023-01-10T18:36:47.602Z,98384.97
2023-01-10T18:39:16.952Z,98347.28
2023-01-10T18:41:43.784Z,98348.56
2023-01-10T18:44:10.409Z,98325.06
2023-01-10T18:46:37.049Z,98253.78
2023-01-10T18:49:05.433Z,98392.81
2023-01-10T18:51:32.157Z,98391.00
2023-01-10T18:53:58.732Z,98337.44
2023-01-10T18:56:27.171Z,98387.69
2023-01-10T18:58:55.651Z,98378.41
2023-01-10T19:01:23.074Z,98359.59
2023-01-10T19:03:51.900Z,98323.50
2023-01-10T19:06:22.710Z,98370.69
2023-01-10T19:08:52.647Z,98379.97
2023-01-10T19:11:19.915Z,98344.47
2023-01-10T19:13:47.633Z,98376.06
2023-01-10T19:16:21.379Z,98296.47
2023-01-10T19:18:53.447Z,98339.53
2023-01-10T19:21:20.271Z,98366.13
2023-01-10T19:23:49.976Z,98364.31
2023-01-10T19:26:17.888Z,98364.97
2023-01-10T19:28:45.097Z,98360.13
2023-01-10T19:31:23.886Z,98372.25
2023-01-10T19:33:51.141Z,98373.50
2023-01-10T19:36:21.241Z,98371.78
2023-01-10T19:38:48.164Z,98374.41
2023-01-10T19:41:16.010Z,98360.94
2023-01-10T19:43:42.464Z,98348.00
2023-01-10T19:46:11.279Z,98206.50
2023-01-10T19:48:38.362Z,98306.69
2023-01-10T19:51:09.926Z,98296.03
2023-01-10T19:53:38.184Z,98291.94
2023-01-10T19:56:09.507Z,98363.22
2023-01-10T19:58:38.392Z,98359.03
2023-01-10T20:01:31.874Z,98246.50
2023-01-10T20:04:03.322Z,98355.84
2023-01-10T20:06:31.937Z,98352.63
2023-01-10T20:08:58.786Z,98313.41
2023-01-10T20:11:36.709Z,98354.72
2023-01-10T20:14:08.468Z,98326.88
2023-01-10T20:16:35.165Z,98306.03
2023-01-10T20:19:01.949Z,98307.22
2023-01-10T20:21:28.542Z,98286.47
2023-01-10T20:23:55.527Z,98343.44
2023-01-10T20:26:26.491Z,98205.88
2023-01-10T20:28:53.694Z,98286.28
2023-01-10T20:31:23.701Z,98332.59
2023-01-10T20:33:51.321Z,98309.53
2023-01-10T20:36:20.198Z,98330.47
2023-01-10T20:38:47.111Z,98324.84
2023-01-10T20:41:26.807Z,98254.06
2023-01-10T20:43:54.790Z,98325.66
2023-01-10T20:46:27.407Z,98311.59
2023-01-10T20:48:56.535Z,98233.69
2023-01-10T20:51:27.080Z,98330.69
2023-01-10T20:53:53.664Z,98295.94
2023-01-10T20:56:24.755Z,98324.88
2023-01-10T20:58:52.490Z,98317.66
2023-01-10T21:01:33.028Z,98315.28
2023-01-10T21:04:01.040Z,98310.06
2023-01-10T21:06:28.533Z,98306.19
2023-01-10T21:08:56.667Z,98304.00
2023-01-10T21:11:23.319Z,98287.09
2023-01-10T21:13:50.054Z,98302.38
2023-01-10T21:16:19.397Z,98160.91
2023-01-10T21:18:46.307Z,98296.72
2023-01-10T21:21:15.703Z,98243.56
2023-01-10T21:23:42.671Z,98249.31
2023-01-10T21:26:15.558Z,98163.25
2023-01-10T21:28:48.396Z,98292.97
2023-01-10T21:31:18.774Z,98244.47
2023-01-10T21:33:49.353Z,98209.34
2023-01-10T21:36:16.375Z,98218.00
2023-01-10T21:38:43.901Z,98146.38
2023-01-10T21:41:38.752Z,98237.00
2023-01-10T21:44:06.771Z,98278.72
2023-01-10T21:46:33.535Z,98228.63
2023-01-10T21:49:04.479Z,98214.63
2023-01-10T21:51:31.059Z,98268.56
2023-01-10T21:53:57.837Z,98198.44
2023-01-10T21:56:24.528Z,98224.78
2023-01-10T21:58:52.257Z,98222.34
2023-01-10T22:01:18.907Z,98228.81
2023-01-10T22:03:46.128Z,98205.25
2023-01-10T22:06:13.286Z,98099.69
2023-01-10T22:08:39.814Z,98238.63
2023-01-10T22:11:07.211Z,98147.28
2023-01-10T22:13:34.189Z,98104.41
2023-01-10T22:16:01.849Z,98181.28
2023-01-10T22:18:30.043Z,98124.41
2023-01-10T22:20:57.982Z,98149.19
2023-01-10T22:23:24.960Z,98183.72
2023-01-10T22:25:59.328Z,98222.00
2023-01-10T22:28:25.905Z,98215.16
2023-01-10T22:30:54.414Z,98231.44
2023-01-10T22:33:23.003Z,98228.78
2023-01-10T22:35:49.617Z,98140.59
2023-01-10T22:38:16.126Z,98191.81
2023-01-10T22:40:42.860Z,98214.84
2023-01-10T22:43:09.564Z,98189.06
2023-01-10T22:45:40.456Z,98190.81
2023-01-10T22:48:07.020Z,98166.94
2023-01-10T22:50:33.608Z,98175.44
2023-01-10T22:53:00.185Z,98197.84
2023-01-10T22:55:26.701Z,98194.06
2023-01-10T22:57:53.225Z,98091.78
2023-01-10T23:00:20.192Z,98199.25
2023-01-10T23:02:46.763Z,98138.00
2023-01-10T23:05:13.299Z,98060.50
2023-01-10T23:07:39.833Z,98166.78
2023-01-10T23:10:17.252Z,98194.56
2023-01-10T23:12:51.097Z,98204.41
2023-01-10T23:15:17.930Z,98170.28
2023-01-10T23:17:44.408Z,98173.50
2023-01-10T23:20:11.455Z,98200.19
2023-01-10T23:22:38.341Z,98145.38
2023-01-10T23:25:05.421Z,98204.53
2023-01-10T23:27:31.872Z,98208.28
2023-01-10T23:29:58.521Z,98187.53
2023-01-10T23:32:25.184Z,98187.78
2023-01-10T23:34:51.845Z,98190.41
2023-01-10T23:37:18.376Z,98138.53
2023-01-10T23:39:45.992Z,98143.38
2023-01-10T23:42:12.471Z,98182.72
2023-01-10T23:44:39.112Z,98097.34
2023-01-10T23:47:05.794Z,98014.88
2023-01-10T23:49:34.897Z,98081.41
2023-01-10T23:52:01.637Z,98110.91
2023-01-10T23:54:28.368Z,98114.28
2023-01-10T23:56:54.892Z,98129.06
2023-01-10T23:59:22.080Z,98079.84
